createdAt,value
2023-01-26T00:01:11.391Z,25.67
2023-01-26T00:03:41.926Z,25.27
2023-01-26T00:06:13.424Z,21.05
2023-01-26T00:08:44.249Z,18.92
2023-01-26T00:11:15.097Z,22.08
2023-01-26T00:13:46.209Z,21.48
2023-01-26T00:16:16.929Z,23.83
2023-01-26T00:18:47.342Z,28.90
2023-01-26T00:21:18.487Z,25.98
2023-01-26T00:23:48.309Z,22.55
2023-01-26T00:26:19.791Z,23.90
2023-01-26T00:28:51.786Z,24.05
2023-01-26T00:31:22.989Z,21.27
2023-01-26T00:33:52.610Z,28.30
2023-01-26T00:36:22.199Z,31.70
2023-01-26T00:39:02.985Z,31.70
2023-01-26T00:41:49.517Z,28.67
2023-01-26T00:44:20.211Z,25.55
2023-01-26T00:46:49.451Z,28.77
2023-01-26T00:49:18.711Z,22.20
2023-01-26T00:51:48.075Z,26.52
2023-01-26T00:54:23.262Z,30.02
2023-01-26T00:56:52.610Z,21.65
2023-01-26T00:59:23.801Z,21.60
2023-01-26T01:01:53.475Z,30.90
2023-01-26T01:04:22.827Z,27.50
2023-01-26T01:06:52.081Z,27.23
2023-01-26T01:09:21.322Z,28.75
2023-01-26T01:11:51.997Z,23.90
2023-01-26T01:14:22.734Z,32.40
2023-01-26T01:16:52.751Z,23.20
2023-01-26T01:19:22.597Z,25.63
2023-01-26T01:21:51.866Z,32.80
2023-01-26T01:24:21.102Z,24.65
2023-01-26T01:26:50.437Z,25.90
2023-01-26T01:29:19.984Z,27.63
2023-01-26T01:31:50.552Z,30.30
2023-01-26T01:34:19.916Z,22.63
2023-01-26T01:36:49.237Z,33.75
2023-01-26T01:39:18.471Z,28.85
2023-01-26T01:41:47.751Z,31.20
2023-01-26T01:44:19.678Z,24.98
2023-01-26T01:46:54.437Z,27.83
2023-01-26T01:49:27.826Z,36.38
2023-01-26T01:52:03.678Z,31.90
2023-01-26T01:54:36.462Z,29.67
2023-01-26T01:57:15.606Z,26.85
2023-01-26T01:59:51.432Z,33.47
2023-01-26T02:02:22.172Z,27.70
2023-01-26T02:04:51.788Z,30.83
2023-01-26T02:07:21.555Z,27.40
2023-01-26T02:10:10.750Z,30.00
2023-01-26T02:12:40.183Z,29.35
2023-01-26T02:15:10.409Z,21.98
2023-01-26T02:17:42.178Z,22.15
2023-01-26T02:20:21.732Z,27.33
2023-01-26T02:23:00.444Z,28.67
2023-01-26T02:25:39.909Z,30.17
2023-01-26T02:28:11.239Z,26.50
2023-01-26T02:30:41.166Z,28.92
2023-01-26T02:33:15.870Z,35.67
2023-01-26T02:35:44.979Z,23.85
2023-01-26T02:38:14.859Z,28.25
2023-01-26T02:40:51.502Z,25.25
2023-01-26T02:43:22.178Z,25.92
2023-01-26T02:45:51.275Z,33.88
2023-01-26T02:48:41.174Z,21.75
2023-01-26T02:51:09.358Z,30.42
2023-01-26T02:53:38.490Z,25.73
2023-01-26T02:56:07.239Z,32.80
2023-01-26T02:58:37.823Z,29.48
2023-01-26T03:01:07.123Z,28.65
2023-01-26T03:03:46.120Z,24.25
2023-01-26T03:06:17.093Z,27.30
2023-01-26T03:08:46.301Z,29.17
2023-01-26T03:11:15.417Z,29.60
2023-01-26T03:13:46.107Z,25.35
2023-01-26T03:16:18.675Z,29.25
2023-01-26T03:19:04.924Z,26.88
2023-01-26T03:21:51.433Z,22.63
2023-01-26T03:24:38.406Z,25.42
2023-01-26T03:27:29.084Z,25.38
2023-01-26T03:30:06.019Z,18.83
2023-01-26T03:32:35.242Z,19.23
2023-01-26T03:35:10.225Z,19.92
2023-01-26T03:37:43.665Z,22.30
2023-01-26T03:40:36.917Z,24.42
2023-01-26T03:43:27.090Z,28.10
2023-01-26T03:46:15.843Z,22.77
2023-01-26T03:49:02.050Z,24.05
2023-01-26T03:51:49.148Z,18.33
2023-01-26T03:54:35.647Z,18.90
2023-01-26T03:57:05.054Z,20.08
2023-01-26T03:59:42.345Z,15.65
2023-01-26T04:02:39.305Z,22.80
2023-01-26T04:05:28.596Z,25.17
2023-01-26T04:08:23.840Z,18.50
2023-01-26T04:10:58.722Z,19.42
2023-01-26T04:13:45.702Z,20.45
2023-01-26T04:16:43.800Z,20.50
2023-01-26T04:19:31.858Z,19.70
2023-01-26T04:22:01.686Z,21.45
2023-01-26T04:24:32.641Z,17.10
2023-01-26T04:27:01.805Z,16.50
2023-01-26T04:29:36.874Z,25.90
2023-01-26T04:32:06.209Z,18.77
2023-01-26T04:34:37.708Z,19.33
2023-01-26T04:37:14.251Z,20.08
2023-01-26T04:39:48.039Z,21.85
2023-01-26T04:42:18.467Z,22.20
2023-01-26T04:44:47.543Z,21.75
2023-01-26T04:47:16.691Z,21.42
2023-01-26T04:49:47.421Z,20.38
2023-01-26T04:52:19.070Z,16.60
2023-01-26T04:54:48.105Z,20.25
2023-01-26T04:57:20.326Z,21.40
2023-01-26T04:59:52.046Z,25.08
2023-01-26T05:02:22.417Z,23.95
2023-01-26T05:04:54.177Z,20.50
2023-01-26T05:07:23.785Z,29.80
2023-01-26T05:09:55.754Z,22.95
2023-01-26T05:12:43.511Z,20.00
2023-01-26T05:15:45.211Z,23.58
2023-01-26T05:18:34.258Z,21.92
2023-01-26T05:21:19.219Z,17.70
2023-01-26T05:23:52.159Z,21.95
2023-01-26T05:26:40.858Z,23.23
2023-01-26T05:29:15.035Z,20.90
2023-01-26T05:31:44.145Z,21.98
2023-01-26T05:34:13.282Z,22.10
2023-01-26T05:36:43.999Z,23.15
2023-01-26T05:39:13.251Z,21.80
2023-01-26T05:41:42.398Z,21.08
2023-01-26T05:44:20.724Z,20.77
2023-01-26T05:47:01.340Z,18.23
2023-01-26T05:49:31.306Z,18.60
2023-01-26T05:52:01.785Z,23.83
2023-01-26T05:54:31.820Z,19.42
2023-01-26T05:57:02.074Z,18.45
2023-01-26T05:59:31.834Z,25.08
2023-01-26T06:02:01.319Z,21.17
2023-01-26T06:04:30.754Z,21.73
2023-01-26T06:07:03.178Z,21.73
2023-01-26T06:09:39.327Z,23.88
2023-01-26T06:12:54.013Z,18.42
2023-01-26T06:15:39.532Z,27.00
2023-01-26T06:18:08.523Z,27.27
2023-01-26T06:20:38.620Z,16.70
2023-01-26T06:23:12.033Z,22.10
2023-01-26T06:25:41.680Z,18.50
2023-01-26T06:28:10.745Z,24.25
2023-01-26T06:30:40.026Z,24.45
2023-01-26T06:33:13.272Z,20.48
2023-01-26T06:35:42.290Z,21.88
2023-01-26T06:38:15.701Z,16.45
2023-01-26T06:40:44.868Z,16.90
2023-01-26T06:43:13.852Z,20.42
2023-01-26T06:45:43.164Z,21.98
2023-01-26T06:48:12.428Z,16.73
2023-01-26T06:50:42.230Z,20.90
2023-01-26T06:53:30.351Z,17.08
2023-01-26T06:56:22.691Z,20.70
2023-01-26T06:59:12.458Z,17.70
2023-01-26T07:02:20.052Z,20.45
2023-01-26T07:04:49.977Z,16.85
2023-01-26T07:07:19.007Z,12.57
2023-01-26T07:09:49.901Z,22.50
2023-01-26T07:12:18.913Z,18.45
2023-01-26T07:14:48.018Z,14.57
2023-01-26T07:17:16.944Z,12.52
2023-01-26T07:19:46.193Z,18.02
2023-01-26T07:22:23.075Z,19.23
2023-01-26T07:24:54.485Z,24.40
2023-01-26T07:28:15.263Z,19.60
2023-01-26T07:30:44.430Z,18.50
2023-01-26T07:33:13.463Z,13.93
2023-01-26T07:35:42.893Z,16.45
2023-01-26T07:38:38.401Z,19.70
2023-01-26T07:41:11.282Z,12.38
2023-01-26T07:43:42.090Z,14.80
2023-01-26T07:46:12.023Z,13.75
2023-01-26T07:48:41.890Z,14.73
2023-01-26T07:51:11.312Z,20.67
2023-01-26T07:53:42.386Z,11.40
2023-01-26T07:56:16.018Z,14.50
2023-01-26T07:58:45.083Z,20.27
2023-01-26T08:01:15.760Z,20.20
2023-01-26T08:03:46.207Z,19.27
2023-01-26T08:06:17.115Z,19.23
2023-01-26T08:08:46.497Z,22.35
2023-01-26T08:11:16.837Z,14.27
2023-01-26T08:13:46.073Z,18.00
2023-01-26T08:16:15.176Z,18.23
2023-01-26T08:18:46.181Z,21.52
2023-01-26T08:21:17.561Z,11.57
2023-01-26T08:23:51.412Z,17.67
2023-01-26T08:26:22.413Z,13.00
2023-01-26T08:28:51.754Z,12.77
2023-01-26T08:31:22.814Z,11.88
2023-01-26T08:33:54.446Z,31.67
2023-01-26T08:36:24.332Z,16.48
2023-01-26T08:38:53.708Z,12.75
2023-01-26T08:41:24.206Z,16.52
2023-01-26T08:43:53.554Z,14.25
2023-01-26T08:46:22.798Z,17.77
2023-01-26T08:48:51.824Z,16.00
2023-01-26T08:51:20.965Z,9.90
2023-01-26T08:53:50.105Z,9.82
2023-01-26T08:56:19.308Z,8.30
2023-01-26T08:58:50.972Z,8.85
2023-01-26T09:01:20.115Z,9.77
2023-01-26T09:03:51.482Z,12.18
2023-01-26T09:06:20.872Z,13.85
2023-01-26T09:08:49.935Z,16.73
2023-01-26T09:11:19.112Z,10.55
2023-01-26T09:13:56.634Z,13.30
2023-01-26T09:16:26.422Z,17.88
2023-01-26T09:18:55.844Z,14.80
2023-01-26T09:21:25.161Z,15.90
2023-01-26T09:23:54.367Z,19.92
2023-01-26T09:26:23.447Z,12.73
2023-01-26T09:28:54.990Z,16.15
2023-01-26T09:31:24.204Z,12.52
2023-01-26T09:33:53.489Z,20.13
2023-01-26T09:36:22.727Z,15.30
2023-01-26T09:38:54.150Z,10.77
2023-01-26T09:41:45.357Z,14.70
2023-01-26T09:44:21.037Z,23.25
2023-01-26T09:47:03.482Z,20.63
2023-01-26T09:49:47.847Z,17.38
2023-01-26T09:52:24.380Z,16.35
2023-01-26T09:54:56.037Z,15.30
2023-01-26T09:57:30.872Z,13.88
2023-01-26T10:00:08.831Z,13.93
2023-01-26T10:02:51.437Z,23.50
2023-01-26T10:05:26.675Z,20.13
2023-01-26T10:07:55.879Z,20.10
2023-01-26T10:10:30.650Z,13.90
2023-01-26T10:13:00.322Z,16.50
2023-01-26T10:15:39.187Z,25.50
2023-01-26T10:18:17.857Z,19.75
2023-01-26T10:20:51.462Z,12.35
2023-01-26T10:23:24.875Z,17.13
2023-01-26T10:25:54.875Z,19.73
2023-01-26T10:28:28.839Z,18.20
2023-01-26T10:30:59.597Z,20.73
2023-01-26T10:33:32.823Z,15.27
2023-01-26T10:36:02.432Z,14.93
2023-01-26T10:38:42.435Z,15.10
2023-01-26T10:41:26.322Z,17.40
2023-01-26T10:43:57.900Z,19.75
2023-01-26T10:46:39.354Z,15.02
2023-01-26T10:49:17.802Z,15.05
2023-01-26T10:52:06.017Z,11.95
2023-01-26T10:54:36.996Z,17.00
2023-01-26T10:57:14.855Z,20.42
2023-01-26T10:59:49.723Z,16.35
2023-01-26T11:03:07.886Z,17.88
2023-01-26T11:05:34.748Z,13.95
2023-01-26T11:08:30.931Z,10.80
2023-01-26T11:11:04.202Z,18.35
2023-01-26T11:13:40.723Z,10.68
2023-01-26T11:16:26.912Z,12.48
2023-01-26T11:19:15.381Z,15.60
2023-01-26T11:21:55.295Z,12.75
2023-01-26T11:24:37.536Z,16.77
2023-01-26T11:27:46.105Z,12.98
2023-01-26T11:30:40.481Z,14.68
2023-01-26T11:33:24.046Z,12.20
2023-01-26T11:36:10.482Z,9.30
2023-01-26T11:38:43.856Z,10.18
2023-01-26T11:41:41.569Z,11.38
2023-01-26T11:44:34.378Z,10.63
2023-01-26T11:47:24.499Z,11.80
2023-01-26T11:50:32.982Z,8.30
2023-01-26T11:53:33.768Z,14.10
2023-01-26T11:56:28.860Z,9.10
2023-01-26T11:59:07.285Z,9.45
2023-01-26T12:01:41.992Z,9.55
2023-01-26T12:04:27.399Z,10.85
2023-01-26T12:07:07.619Z,7.53
2023-01-26T12:09:45.339Z,9.63
2023-01-26T12:12:21.718Z,10.00
2023-01-26T12:14:59.120Z,9.88
2023-01-26T12:17:44.735Z,10.15
2023-01-26T12:20:30.993Z,12.10
2023-01-26T12:23:09.778Z,8.15
2023-01-26T12:25:50.067Z,8.40
2023-01-26T12:28:25.038Z,9.27
2023-01-26T12:31:05.223Z,10.18
2023-01-26T12:33:41.412Z,10.98
2023-01-26T12:36:26.210Z,10.40
2023-01-26T12:39:11.976Z,10.15
2023-01-26T12:42:06.326Z,12.20
2023-01-26T12:44:44.919Z,10.32
2023-01-26T12:47:30.788Z,10.60
2023-01-26T12:50:07.496Z,10.85
2023-01-26T12:52:45.471Z,8.00
2023-01-26T12:55:25.608Z,9.65
2023-01-26T12:58:06.269Z,9.00
2023-01-26T13:00:41.204Z,12.07
2023-01-26T13:03:21.841Z,12.30
2023-01-26T13:06:21.591Z,12.85
2023-01-26T13:09:05.044Z,12.15
2023-01-26T13:11:49.418Z,11.07
2023-01-26T13:15:06.138Z,12.30
2023-01-26T13:17:54.424Z,24.70
2023-01-26T13:20:56.197Z,37.10
2023-01-26T13:23:54.274Z,11.88
2023-01-26T13:26:54.831Z,11.60
2023-01-26T13:29:58.927Z,7.82
2023-01-26T13:33:28.785Z,11.23
2023-01-26T13:36:05.884Z,13.23
2023-01-26T13:38:43.787Z,9.60
2023-01-26T13:41:22.929Z,11.32
2023-01-26T13:44:01.826Z,12.23
2023-01-26T13:46:48.522Z,12.80
2023-01-26T13:49:41.573Z,16.05
2023-01-26T13:52:22.600Z,30.08
2023-01-26T13:54:58.985Z,32.72
2023-01-26T13:57:36.756Z,16.42
2023-01-26T14:00:17.508Z,17.35
2023-01-26T14:03:07.172Z,20.63
2023-01-26T14:05:45.989Z,14.45
2023-01-26T14:08:22.529Z,15.27
2023-01-26T14:10:59.952Z,13.45
2023-01-26T14:13:40.209Z,24.40
2023-01-26T14:16:33.291Z,21.33
2023-01-26T14:19:17.382Z,17.25
2023-01-26T14:21:56.428Z,15.52
2023-01-26T14:24:36.493Z,16.38
2023-01-26T14:27:10.428Z,28.98
2023-01-26T14:29:44.396Z,26.48
2023-01-26T14:32:20.488Z,26.52
2023-01-26T14:35:05.594Z,14.43
2023-01-26T14:37:39.396Z,16.33
2023-01-26T14:40:24.739Z,18.25
2023-01-26T14:42:59.937Z,20.88
2023-01-26T14:45:34.180Z,23.67
2023-01-26T14:48:11.720Z,23.73
2023-01-26T14:50:50.367Z,21.95
2023-01-26T14:53:27.626Z,19.65
2023-01-26T14:56:01.794Z,25.08
2023-01-26T14:58:36.617Z,22.95
2023-01-26T15:01:11.704Z,22.67
2023-01-26T15:03:45.161Z,24.75
2023-01-26T15:06:35.104Z,28.48
2023-01-26T15:09:24.282Z,26.08
2023-01-26T15:12:18.685Z,23.67
2023-01-26T15:14:59.391Z,24.60
2023-01-26T15:17:40.502Z,20.67
2023-01-26T15:20:52.036Z,25.63
2023-01-26T15:23:43.759Z,25.95
2023-01-26T15:26:19.818Z,25.23
2023-01-26T15:28:57.247Z,19.50
2023-01-26T15:31:35.580Z,18.60
2023-01-26T15:34:11.554Z,17.63
2023-01-26T15:36:53.897Z,24.05
2023-01-26T15:39:33.513Z,19.98
2023-01-26T15:42:26.831Z,28.13
2023-01-26T15:45:01.557Z,19.15
2023-01-26T15:47:32.362Z,23.63
2023-01-26T15:50:04.406Z,17.25
2023-01-26T15:52:37.982Z,17.15
2023-01-26T15:55:23.122Z,18.10
2023-01-26T15:57:54.148Z,20.75
2023-01-26T16:00:27.984Z,19.30
2023-01-26T16:03:01.259Z,27.25
2023-01-26T16:05:42.859Z,18.73
2023-01-26T16:08:14.138Z,23.63
2023-01-26T16:10:51.566Z,20.05
2023-01-26T16:13:23.869Z,24.77
2023-01-26T16:15:56.684Z,19.63
2023-01-26T16:18:30.365Z,14.50
2023-01-26T16:21:07.262Z,19.70
2023-01-26T16:23:39.518Z,18.88
2023-01-26T16:26:20.928Z,23.23
2023-01-26T16:28:51.918Z,18.45
2023-01-26T16:31:25.596Z,13.68
2023-01-26T16:34:03.560Z,16.25
2023-01-26T16:36:35.132Z,18.45
2023-01-26T16:39:09.641Z,16.55
2023-01-26T16:41:49.379Z,13.60
2023-01-26T16:44:19.993Z,17.10
2023-01-26T16:46:52.486Z,16.27
2023-01-26T16:49:27.697Z,15.15
2023-01-26T16:52:01.535Z,14.05
2023-01-26T16:54:34.491Z,15.80
2023-01-26T16:57:09.345Z,17.98
2023-01-26T16:59:48.182Z,18.67
2023-01-26T17:02:30.250Z,15.05
2023-01-26T17:05:04.271Z,14.40
2023-01-26T17:07:35.014Z,21.05
2023-01-26T17:10:05.410Z,16.90
2023-01-26T17:12:38.739Z,18.95
2023-01-26T17:15:13.487Z,16.95
2023-01-26T17:17:47.771Z,22.35
2023-01-26T17:20:21.657Z,18.13
2023-01-26T17:22:53.797Z,18.67
2023-01-26T17:25:28.201Z,19.67
2023-01-26T17:28:00.591Z,20.55
2023-01-26T17:30:35.522Z,25.38
2023-01-26T17:33:09.028Z,19.20
2023-01-26T17:35:41.165Z,17.60
2023-01-26T17:38:12.267Z,17.20
2023-01-26T17:40:43.625Z,22.75
2023-01-26T17:43:19.464Z,25.65
2023-01-26T17:45:53.761Z,19.67
2023-01-26T17:48:25.173Z,17.83
2023-01-26T17:50:58.541Z,23.85
2023-01-26T17:53:33.764Z,23.63
2023-01-26T17:56:15.982Z,20.85
2023-01-26T17:58:58.507Z,21.63
2023-01-26T18:01:33.541Z,28.42
2023-01-26T18:04:04.597Z,25.98
2023-01-26T18:06:41.402Z,26.23
2023-01-26T18:09:15.887Z,25.70
2023-01-26T18:11:48.081Z,24.40
2023-01-26T18:14:22.355Z,30.60
2023-01-26T18:16:55.701Z,23.13
2023-01-26T18:19:34.039Z,24.77
2023-01-26T18:22:05.466Z,23.38
2023-01-26T18:24:37.173Z,23.98
2023-01-26T18:27:08.583Z,30.48
2023-01-26T18:29:42.827Z,30.42
2023-01-26T18:32:14.978Z,25.27
2023-01-26T18:34:50.108Z,29.45
2023-01-26T18:37:20.570Z,29.10
2023-01-26T18:39:52.461Z,26.88
2023-01-26T18:42:27.056Z,32.90
2023-01-26T18:45:04.004Z,34.05
2023-01-26T18:47:35.821Z,26.30
2023-01-26T18:50:08.819Z,23.13
2023-01-26T18:52:44.000Z,25.85
2023-01-26T18:55:14.576Z,25.20
2023-01-26T18:57:45.354Z,21.33
2023-01-26T19:00:25.132Z,32.75
2023-01-26T19:03:05.467Z,33.47
2023-01-26T19:05:36.994Z,27.45
2023-01-26T19:08:13.209Z,23.83
2023-01-26T19:10:44.265Z,27.20
2023-01-26T19:13:17.394Z,30.40
2023-01-26T19:15:56.702Z,29.42
2023-01-26T19:18:28.977Z,27.48
2023-01-26T19:21:04.534Z,29.48
2023-01-26T19:23:39.054Z,35.50
2023-01-26T19:26:13.752Z,27.13
2023-01-26T19:28:45.521Z,30.65
2023-01-26T19:31:21.233Z,31.95
2023-01-26T19:34:00.164Z,32.25
2023-01-26T19:36:34.270Z,27.35
2023-01-26T19:39:07.330Z,36.75
2023-01-26T19:41:43.137Z,24.67
2023-01-26T19:44:13.284Z,27.27
2023-01-26T19:46:54.566Z,33.92
2023-01-26T19:49:26.775Z,22.58
2023-01-26T19:51:59.372Z,26.75
2023-01-26T19:54:30.461Z,24.70
2023-01-26T19:57:01.028Z,23.85
2023-01-26T19:59:32.656Z,26.13
2023-01-26T20:02:11.815Z,21.08
2023-01-26T20:04:44.836Z,27.42
2023-01-26T20:07:18.085Z,22.33
2023-01-26T20:09:56.658Z,36.15
2023-01-26T20:12:28.243Z,25.10
2023-01-26T20:15:00.589Z,22.25
2023-01-26T20:17:38.300Z,36.28
2023-01-26T20:20:13.291Z,30.25
2023-01-26T20:22:44.013Z,21.50
2023-01-26T20:25:15.724Z,33.33
2023-01-26T20:27:48.872Z,28.45
2023-01-26T20:30:20.702Z,21.65
2023-01-26T20:32:57.558Z,24.63
2023-01-26T20:35:30.693Z,25.45
2023-01-26T20:38:03.944Z,21.58
2023-01-26T20:40:35.399Z,27.23
2023-01-26T20:43:10.361Z,28.40
2023-01-26T20:45:48.518Z,23.63
2023-01-26T20:48:23.080Z,32.58
2023-01-26T20:50:54.732Z,32.50
2023-01-26T20:53:28.981Z,30.67
2023-01-26T20:56:10.035Z,25.60
2023-01-26T20:58:43.303Z,35.85
2023-01-26T21:01:18.883Z,36.70
2023-01-26T21:03:55.719Z,30.25
2023-01-26T21:06:27.997Z,25.15
2023-01-26T21:09:02.480Z,25.95
2023-01-26T21:11:34.665Z,27.30
2023-01-26T21:14:06.044Z,24.33
2023-01-26T21:16:37.538Z,18.65
2023-01-26T21:19:11.569Z,25.30
2023-01-26T21:21:45.776Z,31.17
2023-01-26T21:24:17.075Z,26.63
2023-01-26T21:26:49.536Z,33.72
2023-01-26T21:29:24.480Z,24.48
2023-01-26T21:32:02.584Z,23.20
2023-01-26T21:34:35.468Z,36.65
2023-01-26T21:37:07.474Z,28.35
2023-01-26T21:39:42.589Z,23.90
2023-01-26T21:42:14.933Z,27.00
2023-01-26T21:45:05.626Z,28.92
2023-01-26T21:47:47.376Z,28.00
2023-01-26T21:50:53.158Z,30.02
2023-01-26T21:53:27.481Z,22.45
2023-01-26T21:55:58.158Z,30.02
2023-01-26T21:58:45.332Z,27.83
2023-01-26T22:01:16.207Z,28.85
2023-01-26T22:03:48.057Z,28.75
2023-01-26T22:06:25.759Z,20.25
2023-01-26T22:08:59.042Z,30.25
2023-01-26T22:11:30.484Z,31.33
2023-01-26T22:14:03.065Z,29.60
2023-01-26T22:16:34.636Z,23.30
2023-01-26T22:19:05.385Z,25.75
2023-01-26T22:21:39.753Z,31.10
2023-01-26T22:24:12.343Z,26.27
2023-01-26T22:26:47.436Z,21.00
2023-01-26T22:29:18.555Z,28.60
2023-01-26T22:31:52.381Z,27.88
2023-01-26T22:34:24.237Z,26.92
2023-01-26T22:36:57.635Z,32.60
2023-01-26T22:39:28.871Z,21.27
2023-01-26T22:42:00.017Z,22.83
2023-01-26T22:44:31.209Z,33.90
2023-01-26T22:47:02.941Z,32.83
2023-01-26T22:49:33.756Z,21.38
2023-01-26T22:52:09.589Z,24.67
2023-01-26T22:54:41.233Z,25.00
2023-01-26T22:57:19.744Z,24.10
2023-01-26T22:59:56.670Z,19.20
2023-01-26T23:02:28.831Z,19.52
2023-01-26T23:05:00.699Z,26.20
2023-01-26T23:07:33.583Z,24.17
2023-01-26T23:10:06.590Z,22.17
2023-01-26T23:12:36.763Z,17.77
2023-01-26T23:15:07.904Z,21.20
2023-01-26T23:17:39.189Z,18.00
2023-01-26T23:20:12.106Z,16.05
2023-01-26T23:22:47.142Z,21.20
2023-01-26T23:25:34.783Z,19.50
2023-01-26T23:28:05.764Z,19.17
2023-01-26T23:30:36.266Z,20.55
2023-01-26T23:33:07.156Z,19.95
2023-01-26T23:35:38.994Z,23.35
2023-01-26T23:38:13.368Z,23.35
2023-01-26T23:40:46.771Z,19.92
2023-01-26T23:43:19.647Z,23.50
2023-01-26T23:45:57.010Z,23.45
2023-01-26T23:48:29.661Z,21.67
2023-01-26T23:51:05.828Z,15.02
2023-01-26T23:53:41.082Z,18.98
2023-01-26T23:56:16.314Z,22.17
2023-01-26T23:58:48.589Z,18.08
